Thailine 5 — 9WFF5 — position and weather

sailwx.info

Track history (hours):
 
Tides and Currents Weather Stations Pressure Air Temp Water Temp Dewpoint Dewpoint Depression Visibility Wind Speed Wind Dir Waves Ship Positions

Thailine 5

Last reported at 2015-Aug-14 12:25 UTC. Time now 2015-Aug-29 09:25 UTC.
Position N 34°13' E 134°57'.
Warning: this ship's position is 14 days out of date.

Length 98 m; draft 5.5 m.

Type: Cargo ship. MMSI: 533399000.

Date/timePositionNaut miles runAvg speedWind from/ knotsBaromVisibWave heightAir tempDewpointWater temp
2015-Aug-14 12:25N 34°13' E 134°57'21 1.4
2015-Aug-13 22:07N 34°28' E 135°14'18 9.9
2015-Aug-13 20:19N 34°15' E 134°59'7 9.2
2015-Aug-13 19:33N 34°08' E 134°59'10 9.7
2015-Aug-13 18:32N 33°58' E 134°59'229 7.1
2015-Aug-12 10:19N 34°58' E 139°27'6 7.8
2015-Aug-12 09:33N 35°01' E 139°33'10 9.8
2015-Aug-12 08:33N 35°07' E 139°43'10 9.6
2015-Aug-12 07:33N 35°16' E 139°46'9 8.9
2015-Aug-12 06:33N 35°25' E 139°44'10 9.8
2015-Aug-12 05:33N 35°31' E 139°54'10 9.9
2015-Aug-12 04:33N 35°35' E 140°04'2 1.4
2015-Aug-12 03:28N 35°36' E 140°06'0 0.0
2015-Aug-12 02:31N 35°36' E 140°06'0 0.0
2015-Aug-12 01:28N 35°36' E 140°06'0 0.0
2015-Aug-12 00:22N 35°36' E 140°06'0 0.0
2015-Aug-11 23:28N 35°36' E 140°06'0 0.0
2015-Aug-11 22:22N 35°36' E 140°06'0 0.0
2015-Aug-11 21:28N 35°36' E 140°06'0 0.0
2015-Aug-11 19:28N 35°36' E 140°06'0 0.0
2015-Aug-11 18:16N 35°36' E 140°06'0 0.0
2015-Aug-11 16:28N 35°36' E 140°06'0 0.0
2015-Aug-11 15:22N 35°36' E 140°06'0 0.0
2015-Aug-11 14:28N 35°36' E 140°06'0 0.0
2015-Aug-11 13:28N 35°36' E 140°06'0 0.0
2015-Aug-11 12:28N 35°36' E 140°06'0 0.0
2015-Aug-11 11:16N 35°36' E 140°06'0 0.0
2015-Aug-11 10:22N 35°36' E 140°06'0 0.0
2015-Aug-11 09:22N 35°36' E 140°06'0 0.0
2015-Aug-11 08:16N 35°36' E 140°06'0 0.0
2015-Aug-11 07:28N 35°36' E 140°06'0 0.5
2015-Aug-11 06:33N 35°35' E 140°06'5 4.4
2015-Aug-11 05:32N 35°34' E 140°00'0 0.0
2015-Aug-11 04:29N 35°34' E 140°00'0 0.0
2015-Aug-11 03:32N 35°34' E 140°00'0 0.0
2015-Aug-11 02:29N 35°34' E 140°00'0 0.0
2015-Aug-11 01:05N 35°34' E 140°00'0 0.0
2015-Aug-11 00:29N 35°34' E 140°00'0 0.0
2015-Aug-10 23:29N 35°34' E 140°00'0 0.0
2015-Aug-10 22:29N 35°34' E 140°00'0 0.0
2015-Aug-10 21:29N 35°34' E 140°00'0 0.1
2015-Aug-10 20:32N 35°34' E 140°00'0 0.0
2015-Aug-10 19:29N 35°34' E 140°00'0 0.0
2015-Aug-10 18:29N 35°34' E 140°00'0 0.0
2015-Aug-10 17:29N 35°34' E 140°00'0 0.0
2015-Aug-10 16:29N 35°34' E 140°00'0 0.0
2015-Aug-10 14:29N 35°34' E 140°00'0 0.0
2015-Aug-10 13:24N 35°34' E 140°00'0 0.0
2015-Aug-10 12:24N 35°34' E 140°00'0 0.0
2015-Aug-10 11:30N 35°34' E 140°00'0 0.0
2015-Aug-10 10:30N 35°34' E 140°00'2 1.7
2015-Aug-10 09:33N 35°33' E 139°59'9 9.4
2015-Aug-10 08:34N 35°27' E 139°50'8 7.8
2015-Aug-10 07:33N 35°27' E 139°40'0 0.2
2015-Aug-10 06:32N 35°26' E 139°40'0 0.0
2015-Aug-10 05:32N 35°26' E 139°40'0 0.0
2015-Aug-10 04:32N 35°26' E 139°40'0 0.0
2015-Aug-10 03:32N 35°26' E 139°40'0 0.0
2015-Aug-10 02:32N 35°26' E 139°40'0 0.0
2015-Aug-10 01:32N 35°26' E 139°40'0 0.0
2015-Aug-10 00:32N 35°26' E 139°40'0 0.0
2015-Aug-09 23:32N 35°26' E 139°40'0 0.0
2015-Aug-09 22:32N 35°26' E 139°40'1 0.9
2015-Aug-09 21:33N 35°27' E 139°41'1 1.3
2015-Aug-09 20:32N 35°25' E 139°42'0 0.0
2015-Aug-09 19:32N 35°25' E 139°42'0 0.0
2015-Aug-09 18:32N 35°25' E 139°42'0 0.0
2015-Aug-09 17:32N 35°25' E 139°42'0 0.0
2015-Aug-09 16:32N 35°25' E 139°42'0 0.1
2015-Aug-09 15:32N 35°26' E 139°42'0 0.0
2015-Aug-09 14:32N 35°26' E 139°42'0 0.0
2015-Aug-09 13:32N 35°26' E 139°42'0 0.0
2015-Aug-09 12:32N 35°26' E 139°42'0 0.0
2015-Aug-09 11:32N 35°26' E 139°42'0 0.0
2015-Aug-09 10:32N 35°26' E 139°42'0 0.0
2015-Aug-09 09:32N 35°26' E 139°42'0 0.0
2015-Aug-09 08:32N 35°26' E 139°42'0 0.0
2015-Aug-09 07:32N 35°26' E 139°42'0 0.1
2015-Aug-09 06:32N 35°25' E 139°42'0 0.0
2015-Aug-09 05:32N 35°26' E 139°42'0 0.0
2015-Aug-09 04:32N 35°26' E 139°42'0 0.0
2015-Aug-09 03:32N 35°26' E 139°42'0 0.0
2015-Aug-09 02:29N 35°26' E 139°42'0 0.0
2015-Aug-09 01:32N 35°26' E 139°42'0 0.0
2015-Aug-09 00:32N 35°26' E 139°42'0 0.0
2015-Aug-08 23:32N 35°26' E 139°42'0 0.0
2015-Aug-08 22:32N 35°25' E 139°42'0 0.1
2015-Aug-08 21:32N 35°25' E 139°42'0 0.0
2015-Aug-08 20:32N 35°25' E 139°42'0 0.0
2015-Aug-08 19:32N 35°25' E 139°42'0 0.0
2015-Aug-08 18:32N 35°25' E 139°42'0 0.0
2015-Aug-08 17:32N 35°25' E 139°42'0 0.0
2015-Aug-08 16:32N 35°25' E 139°42'0 0.0
2015-Aug-08 15:32N 35°25' E 139°42'0 0.0
2015-Aug-08 14:32N 35°25' E 139°42'0 0.0
2015-Aug-08 13:32N 35°25' E 139°42'0 0.0
2015-Aug-08 12:32N 35°25' E 139°42'0 0.0
2015-Aug-08 11:29N 35°25' E 139°42'0 0.1
2015-Aug-08 10:32N 35°26' E 139°42'0 0.0
2015-Aug-08 09:32N 35°26' E 139°42'0 0.0
2015-Aug-08 08:32N 35°26' E 139°42'0 0.0
2015-Aug-08 07:32N 35°25' E 139°42'0 0.0
2015-Aug-08 06:32N 35°25' E 139°42'0 0.0
2015-Aug-08 05:32N 35°25' E 139°42'0 0.0
2015-Aug-08 04:32N 35°25' E 139°42'0 0.0
2015-Aug-08 03:32N 35°25' E 139°42'0 0.0
2015-Aug-08 02:32N 35°25' E 139°42'0 0.0
2015-Aug-08 01:32N 35°25' E 139°42'0 0.0
2015-Aug-08 00:32N 35°25' E 139°42'0 0.0
2015-Aug-07 23:29N 35°26' E 139°42'0 0.1
2015-Aug-07 22:33N 35°25' E 139°42'0 0.1
2015-Aug-07 21:33N 35°25' E 139°42'0 0.0
2015-Aug-07 20:34N 35°25' E 139°42'0 0.0
2015-Aug-07 19:33N 35°25' E 139°42'0 0.0
2015-Aug-07 18:33N 35°25' E 139°42'2 1.8
2015-Aug-07 17:33N 35°24' E 139°43'8 8.2
2015-Aug-07 16:33N 35°16' E 139°46'9 9.3
2015-Aug-07 15:33N 35°07' E 139°46'1010.3
2015-Aug-07 14:33N 34°57' E 139°42'8 7.7
2015-Aug-07 13:30N 34°52' E 139°49'7 7.0
2015-Aug-07 12:31N 34°52' E 139°58'7 7.7
2015-Aug-07 11:33N 34°56' E 140°06'10 9.7
2015-Aug-07 10:33N 34°60' E 140°16'12 9.9
2015-Aug-07 09:20N 35°06' E 140°29'810.1
2015-Aug-07 08:33N 35°12' E 140°35'65 9.3
2015-Aug-07 01:31N 36°11' E 141°08'2210.4
2015-Aug-06 23:23N 36°33' E 141°13'910.3
2015-Aug-06 22:31N 36°42' E 141°17'1110.1
2015-Aug-06 21:28N 36°51' E 141°23'  
Track history (hours):
 
Tides and Currents Weather Stations Pressure Air Temp Water Temp Dewpoint Dewpoint Depression Visibility Wind Speed Wind Dir Waves Ship Positions

Thailine 5

Last reported at 2015-Aug-14 12:25 UTC. Time now 2015-Aug-29 09:25 UTC.
Position N 34°13' E 134°57'.
Warning: this ship's position is 14 days out of date.

Length 98 m; draft 5.5 m.

Type: Cargo ship. MMSI: 533399000.

Date/timePositionNaut miles runAvg speedWind from/ knotsBaromVisibWave heightAir tempDewpointWater temp
2015-Aug-14 12:25N 34°13' E 134°57'21 1.4
2015-Aug-13 22:07N 34°28' E 135°14'18 9.9
2015-Aug-13 20:19N 34°15' E 134°59'7 9.2
2015-Aug-13 19:33N 34°08' E 134°59'10 9.7
2015-Aug-13 18:32N 33°58' E 134°59'229 7.1
2015-Aug-12 10:19N 34°58' E 139°27'6 7.8
2015-Aug-12 09:33N 35°01' E 139°33'10 9.8
2015-Aug-12 08:33N 35°07' E 139°43'10 9.6
2015-Aug-12 07:33N 35°16' E 139°46'9 8.9
2015-Aug-12 06:33N 35°25' E 139°44'10 9.8
2015-Aug-12 05:33N 35°31' E 139°54'10 9.9
2015-Aug-12 04:33N 35°35' E 140°04'2 1.4
2015-Aug-12 03:28N 35°36' E 140°06'0 0.0
2015-Aug-12 02:31N 35°36' E 140°06'0 0.0
2015-Aug-12 01:28N 35°36' E 140°06'0 0.0
2015-Aug-12 00:22N 35°36' E 140°06'0 0.0
2015-Aug-11 23:28N 35°36' E 140°06'0 0.0
2015-Aug-11 22:22N 35°36' E 140°06'0 0.0
2015-Aug-11 21:28N 35°36' E 140°06'0 0.0
2015-Aug-11 19:28N 35°36' E 140°06'0 0.0
2015-Aug-11 18:16N 35°36' E 140°06'0 0.0
2015-Aug-11 16:28N 35°36' E 140°06'0 0.0
2015-Aug-11 15:22N 35°36' E 140°06'0 0.0
2015-Aug-11 14:28N 35°36' E 140°06'0 0.0
2015-Aug-11 13:28N 35°36' E 140°06'0 0.0
2015-Aug-11 12:28N 35°36' E 140°06'0 0.0
2015-Aug-11 11:16N 35°36' E 140°06'0 0.0
2015-Aug-11 10:22N 35°36' E 140°06'0 0.0
2015-Aug-11 09:22N 35°36' E 140°06'0 0.0
2015-Aug-11 08:16N 35°36' E 140°06'0 0.0
2015-Aug-11 07:28N 35°36' E 140°06'0 0.5
2015-Aug-11 06:33N 35°35' E 140°06'5 4.4
2015-Aug-11 05:32N 35°34' E 140°00'0 0.0
2015-Aug-11 04:29N 35°34' E 140°00'0 0.0
2015-Aug-11 03:32N 35°34' E 140°00'0 0.0
2015-Aug-11 02:29N 35°34' E 140°00'0 0.0
2015-Aug-11 01:05N 35°34' E 140°00'0 0.0
2015-Aug-11 00:29N 35°34' E 140°00'0 0.0
2015-Aug-10 23:29N 35°34' E 140°00'0 0.0
2015-Aug-10 22:29N 35°34' E 140°00'0 0.0
2015-Aug-10 21:29N 35°34' E 140°00'0 0.1
2015-Aug-10 20:32N 35°34' E 140°00'0 0.0
2015-Aug-10 19:29N 35°34' E 140°00'0 0.0
2015-Aug-10 18:29N 35°34' E 140°00'0 0.0
2015-Aug-10 17:29N 35°34' E 140°00'0 0.0
2015-Aug-10 16:29N 35°34' E 140°00'0 0.0
2015-Aug-10 14:29N 35°34' E 140°00'0 0.0
2015-Aug-10 13:24N 35°34' E 140°00'0 0.0
2015-Aug-10 12:24N 35°34' E 140°00'0 0.0
2015-Aug-10 11:30N 35°34' E 140°00'0 0.0
2015-Aug-10 10:30N 35°34' E 140°00'2 1.7
2015-Aug-10 09:33N 35°33' E 139°59'9 9.4
2015-Aug-10 08:34N 35°27' E 139°50'8 7.8
2015-Aug-10 07:33N 35°27' E 139°40'0 0.2
2015-Aug-10 06:32N 35°26' E 139°40'0 0.0
2015-Aug-10 05:32N 35°26' E 139°40'0 0.0
2015-Aug-10 04:32N 35°26' E 139°40'0 0.0
2015-Aug-10 03:32N 35°26' E 139°40'0 0.0
2015-Aug-10 02:32N 35°26' E 139°40'0 0.0
2015-Aug-10 01:32N 35°26' E 139°40'0 0.0
2015-Aug-10 00:32N 35°26' E 139°40'0 0.0
2015-Aug-09 23:32N 35°26' E 139°40'0 0.0
2015-Aug-09 22:32N 35°26' E 139°40'1 0.9
2015-Aug-09 21:33N 35°27' E 139°41'1 1.3
2015-Aug-09 20:32N 35°25' E 139°42'0 0.0
2015-Aug-09 19:32N 35°25' E 139°42'0 0.0
2015-Aug-09 18:32N 35°25' E 139°42'0 0.0
2015-Aug-09 17:32N 35°25' E 139°42'0 0.0
2015-Aug-09 16:32N 35°25' E 139°42'0 0.1
2015-Aug-09 15:32N 35°26' E 139°42'0 0.0
2015-Aug-09 14:32N 35°26' E 139°42'0 0.0
2015-Aug-09 13:32N 35°26' E 139°42'0 0.0
2015-Aug-09 12:32N 35°26' E 139°42'0 0.0
2015-Aug-09 11:32N 35°26' E 139°42'0 0.0
2015-Aug-09 10:32N 35°26' E 139°42'0 0.0
2015-Aug-09 09:32N 35°26' E 139°42'0 0.0
2015-Aug-09 08:32N 35°26' E 139°42'0 0.0
2015-Aug-09 07:32N 35°26' E 139°42'0 0.1
2015-Aug-09 06:32N 35°25' E 139°42'0 0.0
2015-Aug-09 05:32N 35°26' E 139°42'0 0.0
2015-Aug-09 04:32N 35°26' E 139°42'0 0.0
2015-Aug-09 03:32N 35°26' E 139°42'0 0.0
2015-Aug-09 02:29N 35°26' E 139°42'0 0.0
2015-Aug-09 01:32N 35°26' E 139°42'0 0.0
2015-Aug-09 00:32N 35°26' E 139°42'0 0.0
2015-Aug-08 23:32N 35°26' E 139°42'0 0.0
2015-Aug-08 22:32N 35°25' E 139°42'0 0.1
2015-Aug-08 21:32N 35°25' E 139°42'0 0.0
2015-Aug-08 20:32N 35°25' E 139°42'0 0.0
2015-Aug-08 19:32N 35°25' E 139°42'0 0.0
2015-Aug-08 18:32N 35°25' E 139°42'0 0.0
2015-Aug-08 17:32N 35°25' E 139°42'0 0.0
2015-Aug-08 16:32N 35°25' E 139°42'0 0.0
2015-Aug-08 15:32N 35°25' E 139°42'0 0.0
2015-Aug-08 14:32N 35°25' E 139°42'0 0.0
2015-Aug-08 13:32N 35°25' E 139°42'0 0.0
2015-Aug-08 12:32N 35°25' E 139°42'0 0.0
2015-Aug-08 11:29N 35°25' E 139°42'0 0.1
2015-Aug-08 10:32N 35°26' E 139°42'0 0.0
2015-Aug-08 09:32N 35°26' E 139°42'0 0.0
2015-Aug-08 08:32N 35°26' E 139°42'0 0.0
2015-Aug-08 07:32N 35°25' E 139°42'0 0.0
2015-Aug-08 06:32N 35°25' E 139°42'0 0.0
2015-Aug-08 05:32N 35°25' E 139°42'0 0.0
2015-Aug-08 04:32N 35°25' E 139°42'0 0.0
2015-Aug-08 03:32N 35°25' E 139°42'0 0.0
2015-Aug-08 02:32N 35°25' E 139°42'0 0.0
2015-Aug-08 01:32N 35°25' E 139°42'0 0.0
2015-Aug-08 00:32N 35°25' E 139°42'0 0.0
2015-Aug-07 23:29N 35°26' E 139°42'0 0.1
2015-Aug-07 22:33N 35°25' E 139°42'0 0.1
2015-Aug-07 21:33N 35°25' E 139°42'0 0.0
2015-Aug-07 20:34N 35°25' E 139°42'0 0.0
2015-Aug-07 19:33N 35°25' E 139°42'0 0.0
2015-Aug-07 18:33N 35°25' E 139°42'2 1.8
2015-Aug-07 17:33N 35°24' E 139°43'8 8.2
2015-Aug-07 16:33N 35°16' E 139°46'9 9.3
2015-Aug-07 15:33N 35°07' E 139°46'1010.3
2015-Aug-07 14:33N 34°57' E 139°42'8 7.7
2015-Aug-07 13:30N 34°52' E 139°49'7 7.0
2015-Aug-07 12:31N 34°52' E 139°58'7 7.7
2015-Aug-07 11:33N 34°56' E 140°06'10 9.7
2015-Aug-07 10:33N 34°60' E 140°16'12 9.9
2015-Aug-07 09:20N 35°06' E 140°29'810.1
2015-Aug-07 08:33N 35°12' E 140°35'65 9.3
2015-Aug-07 01:31N 36°11' E 141°08'2210.4
2015-Aug-06 23:23N 36°33' E 141°13'910.3
2015-Aug-06 22:31N 36°42' E 141°17'1110.1
2015-Aug-06 21:28N 36°51' E 141°23'  

Dump ship's entire track history